Time;durP1;ratioP1;P1;durP2;ratioP2;P2;SDS_P1;SDS_P2;PMS_P1;PMS_P2;Temp;Humidity;BMP_temperature;BMP_pressure;BME280_temperature;BME280_humidity;BME280_pressure;Samples;Min_cycle;Max_cycle;Signal;HPM_P1;HPM_P2
2022/03/29 00:00:26;;;;;;;;;;;7.50;99.90;;;;;;5050852;28;19917;-73
2022/03/29 00:02:51;;;;;;;;;;;7.50;99.90;;;;;;5032993;28;19914;-74
2022/03/29 00:05:17;;;;;;;;;;;7.50;99.90;;;;;;5034371;28;20303;-73
2022/03/29 00:07:44;;;;;;;;;;;7.50;99.90;;;;;;5050434;28;19955;-74
2022/03/29 00:10:10;;;;;;;;;;;7.40;99.90;;;;;;5032557;28;20086;-74
2022/03/29 00:12:36;;;;;;;;;;;7.50;99.90;;;;;;5049760;28;19927;-73
2022/03/29 00:15:02;;;;;;;;;;;7.40;99.90;;;;;;5048650;28;19921;-73
2022/03/29 00:17:28;;;;;;;;;;;7.30;99.90;;;;;;5050639;28;19924;-73
2022/03/29 00:19:53;;;;;;;;;;;7.30;99.90;;;;;;5051462;28;19912;-74
2022/03/29 00:22:19;;;;;;;;;;;7.20;99.90;;;;;;5033421;28;19966;-74
2022/03/29 00:24:45;;;;;;;;;;;7.10;99.90;;;;;;5048460;28;20247;-73
2022/03/29 00:27:10;;;;;;;;;;;7.10;99.90;;;;;;5049119;28;19986;-73
2022/03/29 00:29:37;;;;;;;;;;;7.10;99.90;;;;;;5048902;28;19924;-73
2022/03/29 00:32:03;;;;;;;;;;;7.10;99.90;;;;;;5034251;28;19960;-73
2022/03/29 00:34:28;;;;;;;;;;;7.10;99.90;;;;;;5050509;28;19930;-73
2022/03/29 00:36:54;;;;;;;;;;;7.10;99.90;;;;;;5048799;28;19913;-74
2022/03/29 00:39:19;;;;;;;;;;;7.00;99.90;;;;;;5029005;28;19948;-73
2022/03/29 00:41:45;;;;;;;;;;;7.00;99.90;;;;;;5049663;28;19951;-73
2022/03/29 00:44:11;;;;;;;;;;;7.00;99.90;;;;;;5027431;28;19916;-73
2022/03/29 00:46:36;;;;;;;;;;;7.10;99.90;;;;;;5048449;28;19929;-74
2022/03/29 00:49:02;;;;;;;;;;;7.00;99.90;;;;;;5048937;28;19919;-74
2022/03/29 00:51:28;;;;;;;;;;;7.00;99.90;;;;;;5051329;28;20218;-75
2022/03/29 00:53:54;;;;;;;;;;;7.10;99.90;;;;;;5047527;28;20285;-74
2022/03/29 00:56:20;;;;;;;;;;;7.10;99.90;;;;;;5048549;28;20306;-74
2022/03/29 00:58:46;;;;;;;;;;;7.10;99.90;;;;;;5051231;28;20004;-73
2022/03/29 01:01:13;;;;;;;;;;;7.20;99.90;;;;;;5047433;28;19913;-74
2022/03/29 01:03:41;;;;;;;;;;;7.10;99.90;;;;;;5048275;28;19921;-74
2022/03/29 01:06:07;;;;;;;;;;;7.10;99.90;;;;;;5051160;28;19996;-74
2022/03/29 01:08:33;;;;;;;;;;;7.10;99.90;;;;;;5049716;28;20051;-73
2022/03/29 01:10:59;;;;;;;;;;;7.10;99.90;;;;;;5023489;28;19913;-74
2022/03/29 01:13:24;;;;;;;;;;;7.10;99.90;;;;;;5051587;28;19959;-74
2022/03/29 01:15:50;;;;;;;;;;;7.10;99.90;;;;;;5050151;28;19917;-74
2022/03/29 01:18:17;;;;;;;;;;;7.10;99.90;;;;;;5034922;28;19958;-74
2022/03/29 01:20:43;;;;;;;;;;;7.10;99.90;;;;;;5041862;28;19917;-74
2022/03/29 01:23:10;;;;;;;;;;;7.10;99.90;;;;;;5048656;28;19963;-74
2022/03/29 01:25:39;;;;;;;;;;;7.20;99.90;;;;;;5034774;28;20263;-73
2022/03/29 01:28:05;;;;;;;;;;;7.20;99.90;;;;;;5054832;28;19916;-74
2022/03/29 01:30:31;;;;;;;;;;;7.00;99.90;;;;;;5047145;28;19941;-74
2022/03/29 01:32:58;;;;;;;;;;;7.00;99.90;;;;;;5048724;28;19997;-74
2022/03/29 01:35:24;;;;;;;;;;;6.90;99.90;;;;;;5052997;28;19924;-74
2022/03/29 01:37:50;;;;;;;;;;;7.00;99.90;;;;;;5050204;28;19917;-73
2022/03/29 01:40:18;;;;;;;;;;;7.00;99.90;;;;;;5039121;28;19924;-74
2022/03/29 01:42:50;;;;;;;;;;;6.90;99.90;;;;;;5025692;28;20419;-74
2022/03/29 01:45:17;;;;;;;;;;;6.90;99.90;;;;;;5049618;28;19921;-74
2022/03/29 01:47:42;;;;;;;;;;;7.00;99.90;;;;;;5041997;28;20403;-73
2022/03/29 01:50:09;;;;;;;;;;;6.80;99.90;;;;;;5025433;28;20011;-73
2022/03/29 01:52:43;;;;;;;;;;;6.80;99.90;;;;;;5050785;28;19920;-74
2022/03/29 01:55:09;;;;;;;;;;;6.80;99.90;;;;;;5032634;28;19913;-73
2022/03/29 01:57:35;;;;;;;;;;;6.80;99.90;;;;;;5038004;28;19917;-73
2022/03/29 02:02:45;;;;;;;;;;;6.80;99.90;;;;;;5046653;28;19924;-73
2022/03/29 02:05:11;;;;;;;;;;;6.80;99.90;;;;;;5051961;28;19936;-74
2022/03/29 02:07:36;;;;;;;;;;;6.80;99.90;;;;;;5054932;28;19991;-73
2022/03/29 02:10:02;;;;;;;;;;;6.70;99.90;;;;;;5039290;28;19932;-73
2022/03/29 02:12:28;;;;;;;;;;;6.70;99.90;;;;;;5034008;28;19925;-73
2022/03/29 02:14:54;;;;;;;;;;;6.60;99.90;;;;;;5056413;28;19963;-74
2022/03/29 02:17:19;;;;;;;;;;;6.50;99.90;;;;;;5038699;28;19913;-74
2022/03/29 02:19:45;;;;;;;;;;;6.50;99.90;;;;;;5046480;28;19925;-74
2022/03/29 02:22:10;;;;;;;;;;;6.50;99.90;;;;;;5029431;28;19917;-73
2022/03/29 02:24:36;;;;;;;;;;;6.40;99.90;;;;;;5057859;28;20012;-74
2022/03/29 02:27:01;;;;;;;;;;;6.40;99.90;;;;;;5048146;28;19920;-74
2022/03/29 02:29:27;;;;;;;;;;;6.40;99.90;;;;;;5034878;28;19956;-73
2022/03/29 02:31:52;;;;;;;;;;;6.40;99.90;;;;;;5051983;28;19986;-73
2022/03/29 02:34:18;;;;;;;;;;;6.40;99.90;;;;;;5028324;28;19920;-74
2022/03/29 02:36:44;;;;;;;;;;;6.40;99.90;;;;;;5028441;28;19913;-74
2022/03/29 02:39:09;;;;;;;;;;;6.30;99.90;;;;;;5030074;28;20236;-74
2022/03/29 02:41:35;;;;;;;;;;;6.30;99.90;;;;;;5026525;28;19924;-74
2022/03/29 02:44:00;;;;;;;;;;;6.30;99.90;;;;;;5054106;28;19912;-73
2022/03/29 02:46:26;;;;;;;;;;;6.30;99.90;;;;;;5057397;28;19970;-73
2022/03/29 02:48:52;;;;;;;;;;;6.40;99.90;;;;;;5046723;28;19963;-73
2022/03/29 02:51:17;;;;;;;;;;;6.30;99.90;;;;;;5046402;28;20047;-73
2022/03/29 02:53:43;;;;;;;;;;;6.30;99.90;;;;;;5048892;28;19913;-74
2022/03/29 02:56:08;;;;;;;;;;;6.20;99.90;;;;;;5028764;28;20211;-73
2022/03/29 02:58:34;;;;;;;;;;;6.20;99.90;;;;;;5049077;28;19913;-73
2022/03/29 03:01:00;;;;;;;;;;;6.30;99.90;;;;;;5036412;28;20333;-74
2022/03/29 03:03:26;;;;;;;;;;;6.30;99.90;;;;;;5049145;28;20640;-74
2022/03/29 03:05:51;;;;;;;;;;;6.40;99.90;;;;;;5038548;28;19925;-74
2022/03/29 03:08:17;;;;;;;;;;;6.30;99.90;;;;;;5049677;28;19919;-74
2022/03/29 03:10:42;;;;;;;;;;;6.30;99.90;;;;;;5051757;28;20294;-74
2022/03/29 03:13:09;;;;;;;;;;;6.30;99.90;;;;;;5031395;28;19924;-73
2022/03/29 03:15:35;;;;;;;;;;;6.30;99.90;;;;;;5048793;28;20382;-74
2022/03/29 03:18:02;;;;;;;;;;;6.30;99.90;;;;;;5055519;28;19917;-74
2022/03/29 03:20:29;;;;;;;;;;;6.40;99.90;;;;;;5037475;28;19927;-73
2022/03/29 03:22:55;;;;;;;;;;;6.30;99.90;;;;;;5051243;28;19917;-73
2022/03/29 03:25:21;;;;;;;;;;;6.20;99.90;;;;;;5053453;28;19939;-74
2022/03/29 03:27:47;;;;;;;;;;;6.20;99.90;;;;;;5052700;28;19920;-74
2022/03/29 03:30:14;;;;;;;;;;;6.20;99.90;;;;;;5051512;28;19921;-74
2022/03/29 03:32:40;;;;;;;;;;;6.20;99.90;;;;;;5033678;28;20300;-74
2022/03/29 03:35:06;;;;;;;;;;;6.20;99.90;;;;;;5049697;28;19917;-74
2022/03/29 03:37:31;;;;;;;;;;;6.20;99.90;;;;;;5035924;28;19963;-85
2022/03/29 03:39:57;;;;;;;;;;;6.20;99.90;;;;;;5053951;28;20003;-74
2022/03/29 03:42:23;;;;;;;;;;;6.20;99.90;;;;;;5051827;28;19913;-73
2022/03/29 03:44:48;;;;;;;;;;;6.20;99.90;;;;;;5012353;28;19924;-73
2022/03/29 03:47:14;;;;;;;;;;;6.20;99.90;;;;;;5027541;28;19913;-74
2022/03/29 03:49:39;;;;;;;;;;;6.20;99.90;;;;;;5042923;28;19970;-73
2022/03/29 03:52:06;;;;;;;;;;;6.20;99.90;;;;;;5046585;28;19925;-74
2022/03/29 03:54:35;;;;;;;;;;;6.10;99.90;;;;;;5044287;28;19928;-74
2022/03/29 03:57:00;;;;;;;;;;;6.10;99.90;;;;;;5051327;28;19972;-74
2022/03/29 03:59:26;;;;;;;;;;;6.10;99.90;;;;;;5044451;28;19952;-74
2022/03/29 04:01:51;;;;;;;;;;;6.00;99.90;;;;;;5044979;28;19912;-74
2022/03/29 04:04:17;;;;;;;;;;;6.00;99.90;;;;;;5052265;28;19912;-74
2022/03/29 04:06:42;;;;;;;;;;;6.10;99.90;;;;;;5020989;28;20004;-74
2022/03/29 04:09:08;;;;;;;;;;;6.10;99.90;;;;;;5030208;28;19960;-73
2022/03/29 04:11:34;;;;;;;;;;;6.10;99.90;;;;;;5054824;28;19974;-74
2022/03/29 04:13:59;;;;;;;;;;;6.10;99.90;;;;;;5029141;28;19913;-73
2022/03/29 04:16:25;;;;;;;;;;;6.10;99.90;;;;;;5032335;28;19921;-74
2022/03/29 04:18:51;;;;;;;;;;;6.10;99.90;;;;;;5027533;28;19923;-74
2022/03/29 04:21:17;;;;;;;;;;;6.10;99.90;;;;;;5052511;28;20299;-74
2022/03/29 04:23:43;;;;;;;;;;;6.10;99.90;;;;;;5035100;28;19960;-73
2022/03/29 04:26:08;;;;;;;;;;;6.10;99.90;;;;;;5029032;28;20422;-74
2022/03/29 04:28:34;;;;;;;;;;;6.10;99.90;;;;;;5032132;28;19953;-74
2022/03/29 04:31:00;;;;;;;;;;;6.00;99.90;;;;;;5052891;28;19916;-74
2022/03/29 04:33:26;;;;;;;;;;;6.00;99.90;;;;;;5033758;28;19957;-74
2022/03/29 04:35:51;;;;;;;;;;;5.90;99.90;;;;;;5032016;28;19924;-74
2022/03/29 04:38:17;;;;;;;;;;;5.90;99.90;;;;;;5053762;28;20291;-74
2022/03/29 04:40:43;;;;;;;;;;;5.80;99.90;;;;;;5051570;28;19913;-73
2022/03/29 04:43:08;;;;;;;;;;;5.80;99.90;;;;;;5049541;28;19913;-73
2022/03/29 04:45:34;;;;;;;;;;;5.80;99.90;;;;;;5048733;28;19921;-73
2022/03/29 04:47:59;;;;;;;;;;;5.80;99.90;;;;;;5051460;28;19913;-74
2022/03/29 04:50:26;;;;;;;;;;;5.80;99.90;;;;;;5049793;28;19917;-74
2022/03/29 04:52:51;;;;;;;;;;;5.90;99.90;;;;;;5046984;28;19920;-74
2022/03/29 04:55:18;;;;;;;;;;;5.80;99.90;;;;;;5030381;28;19940;-73
2022/03/29 04:57:45;;;;;;;;;;;5.80;99.90;;;;;;5048944;28;19948;-74
2022/03/29 05:00:12;;;;;;;;;;;5.80;99.90;;;;;;5052286;28;20395;-74
2022/03/29 05:02:38;;;;;;;;;;;5.80;99.90;;;;;;5045470;28;20322;-74
2022/03/29 05:05:04;;;;;;;;;;;5.80;99.90;;;;;;5047379;28;19913;-74
2022/03/29 05:07:30;;;;;;;;;;;5.70;99.90;;;;;;5054936;28;19912;-73
2022/03/29 05:09:55;;;;;;;;;;;5.80;99.90;;;;;;5017396;28;19925;-74
2022/03/29 05:12:21;;;;;;;;;;;5.80;99.90;;;;;;5027002;28;19932;-74
2022/03/29 05:14:47;;;;;;;;;;;5.90;99.90;;;;;;5050359;28;19965;-73
2022/03/29 05:17:13;;;;;;;;;;;5.90;99.90;;;;;;5048506;28;19952;-73
2022/03/29 05:19:38;;;;;;;;;;;5.90;99.90;;;;;;5043399;28;20256;-73
2022/03/29 05:22:04;;;;;;;;;;;5.90;99.90;;;;;;5038098;28;19936;-74
2022/03/29 05:24:30;;;;;;;;;;;5.80;99.90;;;;;;5021266;28;20327;-73
2022/03/29 05:26:56;;;;;;;;;;;5.80;99.90;;;;;;5047232;28;19917;-73
2022/03/29 05:29:22;;;;;;;;;;;5.80;99.90;;;;;;5051371;28;19925;-74
2022/03/29 05:31:47;;;;;;;;;;;5.80;99.90;;;;;;5047294;28;20011;-73
2022/03/29 05:34:16;;;;;;;;;;;5.90;99.90;;;;;;5025744;28;19995;-73
2022/03/29 05:36:44;;;;;;;;;;;5.80;99.90;;;;;;5049966;28;19925;-74
2022/03/29 05:39:15;;;;;;;;;;;5.80;99.90;;;;;;5045544;28;19913;-74
2022/03/29 05:41:41;;;;;;;;;;;5.80;99.90;;;;;;5045873;28;19920;-73
2022/03/29 05:44:07;;;;;;;;;;;5.90;99.90;;;;;;5058109;28;19912;-73
2022/03/29 05:49:19;;;;;;;;;;;5.80;99.90;;;;;;5050198;28;19924;-74
2022/03/29 05:51:45;;;;;;;;;;;5.70;99.90;;;;;;5055377;28;19923;-73
2022/03/29 05:54:10;;;;;;;;;;;5.70;99.90;;;;;;5049420;28;20369;-73
2022/03/29 05:56:36;;;;;;;;;;;5.70;99.90;;;;;;5045400;28;19917;-74
2022/03/29 05:59:01;;;;;;;;;;;5.80;99.90;;;;;;5048017;28;19999;-73
2022/03/29 06:01:27;;;;;;;;;;;5.80;99.90;;;;;;5046819;28;19944;-74
2022/03/29 06:03:52;;;;;;;;;;;5.80;99.90;;;;;;5043585;28;20019;-74
2022/03/29 06:06:18;;;;;;;;;;;5.90;99.90;;;;;;5052649;28;19967;-73
2022/03/29 06:08:43;;;;;;;;;;;5.90;99.90;;;;;;5047011;28;19920;-74
2022/03/29 06:11:09;;;;;;;;;;;5.90;99.90;;;;;;5041894;28;19912;-74
2022/03/29 06:13:35;;;;;;;;;;;5.90;99.90;;;;;;5035838;28;19916;-74
2022/03/29 06:16:02;;;;;;;;;;;5.90;99.90;;;;;;5029976;28;19936;-73
2022/03/29 06:18:28;;;;;;;;;;;5.90;99.90;;;;;;5039055;28;19918;-73
2022/03/29 06:20:54;;;;;;;;;;;6.00;99.90;;;;;;5030474;28;19916;-74
2022/03/29 06:23:19;;;;;;;;;;;5.90;99.90;;;;;;5034831;28;19913;-74
2022/03/29 06:25:46;;;;;;;;;;;5.90;99.90;;;;;;5054082;28;19916;-74
2022/03/29 06:28:11;;;;;;;;;;;5.90;99.90;;;;;;5028835;28;19921;-73
2022/03/29 06:30:38;;;;;;;;;;;5.80;99.90;;;;;;5050705;28;19921;-74
2022/03/29 06:33:04;;;;;;;;;;;5.80;99.90;;;;;;5055452;28;19932;-73
2022/03/29 06:35:31;;;;;;;;;;;5.90;99.90;;;;;;5060458;28;19917;-74
2022/03/29 06:37:58;;;;;;;;;;;6.00;99.90;;;;;;5050401;28;19923;-74
2022/03/29 06:40:24;;;;;;;;;;;6.00;99.90;;;;;;5046443;28;19917;-74
2022/03/29 06:42:51;;;;;;;;;;;6.10;99.90;;;;;;5045887;28;20320;-74
2022/03/29 06:45:16;;;;;;;;;;;6.10;99.90;;;;;;5024803;28;20314;-74
2022/03/29 06:47:42;;;;;;;;;;;6.10;99.90;;;;;;5051405;28;19917;-74
2022/03/29 06:50:10;;;;;;;;;;;6.10;99.90;;;;;;5054860;28;19912;-73
2022/03/29 06:52:36;;;;;;;;;;;6.10;99.90;;;;;;5043823;28;20010;-74
2022/03/29 06:55:03;;;;;;;;;;;6.10;99.90;;;;;;5045553;28;19916;-74
2022/03/29 06:57:28;;;;;;;;;;;6.10;99.90;;;;;;5053343;28;20003;-74
2022/03/29 06:59:54;;;;;;;;;;;6.10;99.90;;;;;;5045596;28;20011;-73
2022/03/29 07:02:19;;;;;;;;;;;6.10;99.90;;;;;;5048375;28;19913;-74
2022/03/29 07:04:45;;;;;;;;;;;6.10;99.90;;;;;;5053115;28;20185;-74
2022/03/29 07:07:10;;;;;;;;;;;6.10;99.90;;;;;;5055375;28;19924;-74
2022/03/29 07:12:21;;;;;;;;;;;6.20;99.90;;;;;;5050863;28;19924;-73
2022/03/29 07:14:47;;;;;;;;;;;6.30;99.90;;;;;;5036708;28;20044;-74
2022/03/29 07:17:15;;;;;;;;;;;6.10;99.90;;;;;;5052695;28;20309;-75
2022/03/29 07:19:41;;;;;;;;;;;6.10;99.90;;;;;;5052433;28;19921;-73
2022/03/29 07:22:06;;;;;;;;;;;6.10;99.90;;;;;;5051082;28;19955;-73
2022/03/29 07:24:32;;;;;;;;;;;6.00;99.90;;;;;;5035421;28;19913;-74
2022/03/29 07:26:58;;;;;;;;;;;6.00;99.90;;;;;;5036384;28;19927;-73
2022/03/29 07:29:25;;;;;;;;;;;6.10;99.90;;;;;;5054103;28;20316;-74
2022/03/29 07:31:51;;;;;;;;;;;6.20;99.90;;;;;;5035450;28;19925;-73
2022/03/29 07:34:17;;;;;;;;;;;6.20;99.90;;;;;;5050276;28;19919;-74
2022/03/29 07:36:42;;;;;;;;;;;6.40;99.90;;;;;;5053156;28;19921;-74
2022/03/29 07:39:08;;;;;;;;;;;6.50;99.90;;;;;;5053117;28;20029;-74
2022/03/29 07:41:34;;;;;;;;;;;6.60;99.90;;;;;;5017511;28;20262;-74
2022/03/29 07:44:00;;;;;;;;;;;6.60;99.90;;;;;;5054350;28;19967;-74
2022/03/29 07:46:25;;;;;;;;;;;6.70;99.90;;;;;;5036142;28;19920;-74
2022/03/29 07:48:51;;;;;;;;;;;6.90;99.90;;;;;;5053149;28;19917;-74
2022/03/29 07:51:17;;;;;;;;;;;6.90;99.90;;;;;;5049874;28;20228;-74
2022/03/29 07:53:43;;;;;;;;;;;6.90;99.90;;;;;;5051121;28;19917;-74
2022/03/29 07:56:09;;;;;;;;;;;7.00;99.90;;;;;;5032437;28;20312;-73
2022/03/29 07:58:35;;;;;;;;;;;6.90;99.90;;;;;;5049268;28;19962;-74
2022/03/29 08:01:01;;;;;;;;;;;7.00;99.90;;;;;;5032771;28;19920;-74
2022/03/29 08:03:32;;;;;;;;;;;7.00;99.90;;;;;;5046531;28;19912;-74
2022/03/29 08:05:57;;;;;;;;;;;6.90;99.90;;;;;;5025946;28;19917;-74
2022/03/29 08:08:23;;;;;;;;;;;6.90;99.90;;;;;;5046336;28;20007;-73
2022/03/29 08:10:49;;;;;;;;;;;6.80;99.90;;;;;;5027702;28;19932;-73
2022/03/29 08:13:15;;;;;;;;;;;6.80;99.90;;;;;;5041514;28;19976;-74
2022/03/29 08:15:43;;;;;;;;;;;6.60;99.90;;;;;;5047373;28;19917;-73
2022/03/29 08:18:08;;;;;;;;;;;6.50;99.90;;;;;;5025917;28;20011;-74
2022/03/29 08:20:35;;;;;;;;;;;6.60;99.90;;;;;;5041780;28;20274;-74
2022/03/29 08:23:01;;;;;;;;;;;6.70;99.90;;;;;;5028491;28;19925;-74
2022/03/29 08:25:27;;;;;;;;;;;6.70;99.90;;;;;;5033546;28;19940;-73
2022/03/29 08:27:56;;;;;;;;;;;6.70;99.90;;;;;;5050788;28;20483;-74
2022/03/29 08:30:23;;;;;;;;;;;6.60;99.90;;;;;;5049867;28;19921;-74
2022/03/29 08:32:49;;;;;;;;;;;6.50;99.90;;;;;;5049351;28;19921;-73
2022/03/29 08:35:17;;;;;;;;;;;6.50;99.90;;;;;;5029912;28;20450;-73
2022/03/29 08:37:43;;;;;;;;;;;6.40;99.90;;;;;;5048268;28;19924;-74
2022/03/29 08:40:13;;;;;;;;;;;6.70;99.90;;;;;;5048441;28;20004;-74
2022/03/29 08:42:49;;;;;;;;;;;6.60;99.90;;;;;;5061660;28;19927;-74
2022/03/29 08:45:16;;;;;;;;;;;6.70;99.90;;;;;;5043003;28;19936;-74
2022/03/29 08:47:42;;;;;;;;;;;6.70;99.90;;;;;;5031257;28;20466;-73
2022/03/29 08:50:09;;;;;;;;;;;6.80;99.90;;;;;;5048924;28;20086;-74
2022/03/29 08:52:35;;;;;;;;;;;7.00;99.90;;;;;;5047942;28;19921;-73
2022/03/29 08:55:03;;;;;;;;;;;7.10;99.90;;;;;;5047992;28;19935;-73
2022/03/29 08:57:29;;;;;;;;;;;7.40;99.90;;;;;;5030397;28;19964;-73
2022/03/29 08:59:55;;;;;;;;;;;7.40;99.90;;;;;;5048544;28;19916;-73
2022/03/29 09:02:21;;;;;;;;;;;7.30;99.90;;;;;;5048425;28;19917;-74
2022/03/29 09:05:05;;;;;;;;;;;7.20;99.90;;;;;;5047905;28;19917;-73
2022/03/29 09:07:46;;;;;;;;;;;7.20;99.90;;;;;;5049404;28;20020;-74
2022/03/29 09:10:12;;;;;;;;;;;7.40;99.90;;;;;;5044124;28;19929;-74
2022/03/29 09:12:38;;;;;;;;;;;7.60;99.90;;;;;;5047091;28;19973;-75
2022/03/29 09:15:04;;;;;;;;;;;7.60;99.90;;;;;;5046966;28;19917;-74
2022/03/29 09:17:38;;;;;;;;;;;7.70;99.90;;;;;;5050952;28;20418;-74
2022/03/29 09:20:07;;;;;;;;;;;7.90;99.90;;;;;;5034237;28;19917;-74
2022/03/29 09:22:43;;;;;;;;;;;8.00;99.90;;;;;;5046598;28;20513;-75
2022/03/29 09:25:13;;;;;;;;;;;8.00;99.90;;;;;;5028697;28;19917;-75
2022/03/29 09:27:52;;;;;;;;;;;7.90;99.90;;;;;;5046613;28;19913;-73
2022/03/29 09:30:19;;;;;;;;;;;7.90;99.90;;;;;;5027755;28;19933;-74
2022/03/29 09:32:52;;;;;;;;;;;8.00;99.90;;;;;;5045564;28;19992;-73
2022/03/29 09:35:19;;;;;;;;;;;7.80;99.90;;;;;;5023744;28;19917;-74
2022/03/29 09:37:45;;;;;;;;;;;7.80;99.90;;;;;;5042930;28;19921;-74
2022/03/29 09:40:12;;;;;;;;;;;7.80;99.90;;;;;;5025541;28;19955;-74
2022/03/29 09:42:39;;;;;;;;;;;7.90;99.90;;;;;;5044740;28;19939;-74
2022/03/29 09:45:05;;;;;;;;;;;8.30;99.90;;;;;;5027379;28;20286;-74
2022/03/29 09:47:31;;;;;;;;;;;8.70;99.90;;;;;;5044104;28;19916;-74
2022/03/29 09:49:58;;;;;;;;;;;9.20;99.90;;;;;;5029787;28;19944;-75
2022/03/29 09:52:24;;;;;;;;;;;9.50;99.90;;;;;;5044842;28;19917;-85
2022/03/29 09:55:06;;;;;;;;;;;9.50;99.90;;;;;;5043529;28;19921;-73
2022/03/29 09:57:39;;;;;;;;;;;9.60;99.90;;;;;;5030991;28;20023;-75
2022/03/29 10:00:07;;;;;;;;;;;9.50;99.90;;;;;;5067724;28;19920;-74
2022/03/29 10:02:37;;;;;;;;;;;9.40;99.90;;;;;;5035626;28;20055;-74
2022/03/29 10:05:03;;;;;;;;;;;9.30;99.90;;;;;;5052752;28;20300;-74
2022/03/29 10:07:31;;;;;;;;;;;9.30;99.90;;;;;;5049262;28;19920;-73
2022/03/29 10:09:57;;;;;;;;;;;9.40;99.90;;;;;;5049818;28;19923;-75
2022/03/29 10:12:23;;;;;;;;;;;9.70;99.90;;;;;;5045832;28;20251;-74
2022/03/29 10:14:50;;;;;;;;;;;10.20;99.90;;;;;;5025378;28;19913;-73
2022/03/29 10:17:16;;;;;;;;;;;10.20;99.90;;;;;;5029642;28;19999;-74
2022/03/29 10:19:44;;;;;;;;;;;10.00;99.90;;;;;;5047009;28;20242;-73
2022/03/29 10:22:11;;;;;;;;;;;9.70;99.90;;;;;;5026640;28;20237;-85
2022/03/29 10:24:38;;;;;;;;;;;9.80;99.90;;;;;;5022420;28;19921;-74
2022/03/29 10:27:03;;;;;;;;;;;10.00;99.90;;;;;;5041121;28;19917;-74
2022/03/29 10:29:30;;;;;;;;;;;10.10;99.90;;;;;;5046017;28;20035;-74
2022/03/29 10:31:57;;;;;;;;;;;10.20;99.90;;;;;;5020615;28;19970;-74
2022/03/29 10:34:42;;;;;;;;;;;10.50;99.90;;;;;;5024967;28;19917;-73
2022/03/29 10:37:08;;;;;;;;;;;10.40;99.90;;;;;;5029801;28;20282;-73
2022/03/29 10:39:45;;;;;;;;;;;10.30;99.90;;;;;;5030615;28;19932;-74
2022/03/29 10:42:29;;;;;;;;;;;10.20;99.90;;;;;;5029187;28;19952;-86
2022/03/29 10:45:05;;;;;;;;;;;10.50;99.90;;;;;;5022169;28;19921;-80
2022/03/29 10:47:31;;;;;;;;;;;10.70;99.90;;;;;;5031354;28;19917;-84
2022/03/29 10:49:57;;;;;;;;;;;10.50;99.90;;;;;;5025162;28;19921;-73
2022/03/29 10:52:23;;;;;;;;;;;10.40;99.90;;;;;;5027035;28;19921;-74
2022/03/29 10:54:49;;;;;;;;;;;10.70;99.90;;;;;;5036017;28;19967;-74
2022/03/29 10:57:25;;;;;;;;;;;11.00;99.90;;;;;;5026914;28;19917;-74
2022/03/29 10:59:58;;;;;;;;;;;11.00;99.90;;;;;;5031682;28;19924;-74
2022/03/29 11:02:25;;;;;;;;;;;11.30;99.90;;;;;;5029956;28;19917;-73
2022/03/29 11:05:05;;;;;;;;;;;11.60;99.90;;;;;;5030460;28;20438;-74
2022/03/29 11:07:32;;;;;;;;;;;11.50;99.90;;;;;;5029964;28;20281;-74
2022/03/29 11:10:19;;;;;;;;;;;11.30;99.90;;;;;;5022174;28;19924;-74
2022/03/29 11:12:52;;;;;;;;;;;10.90;99.90;;;;;;5029348;28;19925;-74
2022/03/29 11:15:24;;;;;;;;;;;10.70;99.90;;;;;;5017792;28;19964;-73
2022/03/29 11:17:53;;;;;;;;;;;10.60;99.90;;;;;;5029576;28;19917;-73
2022/03/29 11:20:32;;;;;;;;;;;10.70;99.90;;;;;;5055347;28;19925;-73
2022/03/29 11:23:18;;;;;;;;;;;10.90;99.90;;;;;;5035316;28;19918;-85
2022/03/29 11:25:45;;;;;;;;;;;11.20;99.90;;;;;;5021045;28;19924;-74
2022/03/29 11:28:12;;;;;;;;;;;11.00;99.90;;;;;;5024421;28;19917;-73
2022/03/29 11:30:38;;;;;;;;;;;10.80;99.90;;;;;;5045946;28;20448;-74
2022/03/29 11:33:04;;;;;;;;;;;11.00;99.90;;;;;;5032074;28;20019;-73
2022/03/29 11:35:31;;;;;;;;;;;11.10;99.90;;;;;;5017371;28;20323;-73
2022/03/29 11:38:06;;;;;;;;;;;10.90;99.90;;;;;;5048657;28;19916;-73
2022/03/29 11:40:33;;;;;;;;;;;10.70;99.90;;;;;;5037406;28;20273;-73
2022/03/29 11:43:00;;;;;;;;;;;10.60;99.90;;;;;;5041429;28;19971;-73
2022/03/29 11:45:28;;;;;;;;;;;10.70;99.90;;;;;;5049239;28;19920;-74
2022/03/29 11:50:49;;;;;;;;;;;11.30;99.90;;;;;;5033882;28;20036;-73
2022/03/29 11:53:26;;;;;;;;;;;11.50;99.90;;;;;;5030794;28;19925;-73
2022/03/29 11:56:07;;;;;;;;;;;11.60;99.90;;;;;;5031867;28;19970;-73
2022/03/29 11:58:32;;;;;;;;;;;11.90;99.90;;;;;;5047833;28;19924;-74
2022/03/29 12:00:59;;;;;;;;;;;12.00;99.90;;;;;;5049662;28;19932;-73
2022/03/29 12:03:29;;;;;;;;;;;12.10;99.90;;;;;;5032906;28;19917;-73
2022/03/29 12:06:01;;;;;;;;;;;11.90;99.90;;;;;;5048233;28;19917;-73
2022/03/29 12:08:41;;;;;;;;;;;11.80;99.90;;;;;;5050281;28;20490;-73
2022/03/29 12:11:08;;;;;;;;;;;11.90;99.90;;;;;;5033238;28;19952;-73
2022/03/29 12:13:34;;;;;;;;;;;12.30;99.90;;;;;;5033514;28;19931;-73
2022/03/29 12:16:14;;;;;;;;;;;12.20;99.90;;;;;;5047235;28;19921;-74
2022/03/29 12:18:43;;;;;;;;;;;12.10;99.90;;;;;;5031073;28;19927;-73
2022/03/29 12:21:10;;;;;;;;;;;12.10;99.90;;;;;;5048644;28;19939;-73
2022/03/29 12:23:36;;;;;;;;;;;12.10;99.90;;;;;;5029801;28;19921;-73
2022/03/29 12:26:03;;;;;;;;;;;12.30;99.90;;;;;;5049491;28;19917;-73
2022/03/29 12:28:29;;;;;;;;;;;12.30;99.90;;;;;;5029398;28;19924;-73
2022/03/29 12:30:55;;;;;;;;;;;12.50;99.90;;;;;;5036594;28;19971;-73
2022/03/29 12:33:23;;;;;;;;;;;12.40;99.90;;;;;;5042000;28;19920;-73
2022/03/29 12:36:02;;;;;;;;;;;12.40;99.90;;;;;;5026378;28;19917;-73
2022/03/29 12:38:37;;;;;;;;;;;12.50;99.90;;;;;;5040686;28;19924;-73
2022/03/29 12:41:03;;;;;;;;;;;12.40;99.90;;;;;;5041516;28;20369;-73
2022/03/29 12:43:33;;;;;;;;;;;12.50;99.90;;;;;;5043248;28;19921;-73
2022/03/29 12:45:59;;;;;;;;;;;12.40;99.90;;;;;;5041012;28;19917;-74
2022/03/29 12:48:26;;;;;;;;;;;12.30;99.90;;;;;;5043511;28;20323;-73
2022/03/29 12:50:53;;;;;;;;;;;12.50;99.90;;;;;;5044271;28;19917;-73
2022/03/29 12:53:18;;;;;;;;;;;12.60;99.90;;;;;;5047447;28;19960;-73
2022/03/29 12:55:55;;;;;;;;;;;12.60;99.90;;;;;;5024917;28;19954;-73
2022/03/29 12:58:31;;;;;;;;;;;12.70;99.90;;;;;;5049880;28;19917;-84
2022/03/29 13:00:56;;;;;;;;;;;12.80;99.90;;;;;;5041298;28;19968;-73
2022/03/29 13:03:22;;;;;;;;;;;12.70;99.90;;;;;;5051543;28;19947;-73
2022/03/29 13:05:48;;;;;;;;;;;12.60;99.90;;;;;;5047759;28;19918;-73
2022/03/29 13:08:18;;;;;;;;;;;12.70;99.90;;;;;;5039920;28;19917;-73
2022/03/29 13:10:44;;;;;;;;;;;12.90;99.90;;;;;;5025637;28;20035;-74
2022/03/29 13:13:10;;;;;;;;;;;13.00;99.90;;;;;;5018057;28;20016;-73
2022/03/29 13:15:41;;;;;;;;;;;13.00;99.90;;;;;;5042382;28;19928;-73
2022/03/29 13:18:25;;;;;;;;;;;13.00;99.90;;;;;;5030511;28;19923;-73
2022/03/29 13:20:52;;;;;;;;;;;12.90;99.90;;;;;;5026783;28;19967;-74
2022/03/29 13:23:28;;;;;;;;;;;12.90;99.90;;;;;;5030027;28;19924;-73
2022/03/29 13:25:54;;;;;;;;;;;12.90;99.90;;;;;;5035438;28;19917;-73
2022/03/29 13:28:19;;;;;;;;;;;12.90;99.90;;;;;;5029178;28;19920;-74
2022/03/29 13:30:45;;;;;;;;;;;12.90;99.90;;;;;;5024672;28;19925;-74
2022/03/29 13:33:10;;;;;;;;;;;13.00;99.90;;;;;;5024960;28;20222;-87
2022/03/29 13:35:41;;;;;;;;;;;13.10;99.90;;;;;;5034619;28;20555;-73
2022/03/29 13:38:07;;;;;;;;;;;13.20;99.90;;;;;;5046498;28;20386;-73
2022/03/29 13:40:33;;;;;;;;;;;13.30;99.90;;;;;;5033877;28;19916;-73
2022/03/29 13:42:58;;;;;;;;;;;13.40;99.90;;;;;;5040238;28;19959;-73
2022/03/29 13:45:25;;;;;;;;;;;13.50;99.90;;;;;;5038444;28;19924;-73
2022/03/29 13:47:50;;;;;;;;;;;13.10;99.90;;;;;;5041778;28;20011;-73
2022/03/29 13:50:16;;;;;;;;;;;12.90;99.90;;;;;;5039655;28;20008;-73
2022/03/29 13:52:41;;;;;;;;;;;12.70;99.90;;;;;;5031740;28;19925;-73
2022/03/29 13:55:07;;;;;;;;;;;12.60;99.90;;;;;;5028656;28;20263;-73
2022/03/29 13:57:33;;;;;;;;;;;12.50;99.90;;;;;;5049283;28;19924;-72
2022/03/29 13:59:58;;;;;;;;;;;12.40;99.90;;;;;;5047422;28;21334;-73
2022/03/29 14:02:24;;;;;;;;;;;12.30;99.90;;;;;;5047685;28;19924;-86
2022/03/29 14:04:49;;;;;;;;;;;12.00;99.90;;;;;;5053480;28;19982;-73
2022/03/29 14:07:15;;;;;;;;;;;12.00;99.90;;;;;;5031443;28;19925;-73
2022/03/29 14:09:41;;;;;;;;;;;11.80;99.90;;;;;;5044701;28;20335;-73
2022/03/29 14:12:06;;;;;;;;;;;11.70;99.90;;;;;;5046552;28;19920;-85
2022/03/29 14:14:32;;;;;;;;;;;11.50;99.90;;;;;;5047121;28;19916;-74
2022/03/29 14:16:57;;;;;;;;;;;11.40;99.90;;;;;;5048443;28;19923;-73
2022/03/29 14:19:23;;;;;;;;;;;11.40;99.90;;;;;;5023903;28;19975;-73
2022/03/29 14:21:49;;;;;;;;;;;11.30;99.90;;;;;;5045788;28;19923;-73
2022/03/29 14:24:14;;;;;;;;;;;11.30;99.90;;;;;;5048603;28;19959;-72
2022/03/29 14:26:40;;;;;;;;;;;11.20;99.90;;;;;;5048061;28;20010;-73
2022/03/29 14:29:06;;;;;;;;;;;11.40;99.90;;;;;;5027843;28;19929;-73
2022/03/29 14:31:32;;;;;;;;;;;11.60;99.90;;;;;;5046899;28;19921;-73
2022/03/29 14:33:57;;;;;;;;;;;11.50;99.90;;;;;;5044955;28;19923;-73
2022/03/29 14:36:24;;;;;;;;;;;11.60;99.90;;;;;;5028527;28;20308;-72